Time;durP1;ratioP1;P1;durP2;ratioP2;P2;SDS_P1;SDS_P2;PMS_P1;PMS_P2;Temp;Humidity;BMP_temperature;BMP_pressure;BME280_temperature;BME280_humidity;BME280_pressure;Samples;Min_cycle;Max_cycle;Signal;HPM_P1;HPM_P2
2023/01/29 00:02:00;;;;;;;11.85;3.05;;;21.30;38.50;;;;;;5071174;28;20062;-64
2023/01/29 00:04:27;;;;;;;16.27;3.42;;;21.10;38.30;;;;;;5079133;28;20060;-64
2023/01/29 00:06:53;;;;;;;12.82;3.63;;;21.00;38.20;;;;;;5077293;28;20160;-65
2023/01/29 00:09:19;;;;;;;16.13;6.00;;;21.00;38.10;;;;;;5079720;28;20163;-63
2023/01/29 00:11:46;;;;;;;13.73;3.78;;;21.00;37.70;;;;;;5076044;28;20187;-64
2023/01/29 00:14:13;;;;;;;12.60;3.10;;;20.90;37.20;;;;;;5075370;28;20060;-63
2023/01/29 00:16:39;;;;;;;10.48;3.17;;;20.80;37.50;;;;;;5077056;28;20536;-62
2023/01/29 00:19:06;;;;;;;11.07;3.17;;;20.80;38.10;;;;;;5082736;28;20147;-64
2023/01/29 00:21:33;;;;;;;17.02;3.10;;;20.70;38.30;;;;;;5076095;28;20069;-64
2023/01/29 00:23:59;;;;;;;13.27;3.20;;;20.70;38.50;;;;;;5074440;28;20043;-65
2023/01/29 00:26:27;;;;;;;16.23;3.97;;;20.70;38.60;;;;;;5077493;28;20062;-65
2023/01/29 00:28:55;;;;;;;14.07;3.75;;;20.70;38.40;;;;;;5078509;28;20057;-64
2023/01/29 00:31:24;;;;;;;13.73;3.70;;;20.60;38.90;;;;;;5078207;28;20534;-65
2023/01/29 00:33:51;;;;;;;19.08;3.78;;;20.50;39.20;;;;;;5074932;28;20070;-65
2023/01/29 00:36:19;;;;;;;23.35;3.83;;;20.40;39.10;;;;;;5075918;28;20155;-64
2023/01/29 00:38:53;;;;;;;13.73;3.67;;;20.30;38.70;;;;;;5079214;28;20098;-66
2023/01/29 00:46:51;;;;;;;20.48;4.15;;;20.00;39.80;;;;;;5078889;28;20552;-64
2023/01/29 00:49:17;;;;;;;11.75;4.20;;;19.80;40.20;;;;;;5078265;28;20597;-64
2023/01/29 00:52:22;;;;;;;19.88;6.25;;;19.80;41.00;;;;;;5080710;28;20110;-64
2023/01/29 00:54:30;;;;;;;29.45;7.53;;;19.70;41.30;;;;;;5076819;28;20070;-63
2023/01/29 00:56:56;;;;;;;24.20;5.95;;;19.50;41.80;;;;;;5077193;28;20150;-65
2023/01/29 00:59:23;;;;;;;15.15;4.63;;;19.30;42.10;;;;;;5071645;28;20076;-64
2023/01/29 01:04:34;;;;;;;21.80;5.65;;;19.10;43.20;;;;;;5075788;28;20220;-63
2023/01/29 01:07:00;;;;;;;17.60;4.63;;;18.90;44.00;;;;;;5076406;28;20070;-63
2023/01/29 01:12:09;;;;;;;20.73;5.57;;;18.70;44.10;;;;;;5017872;28;20120;-66
2023/01/29 01:14:35;;;;;;;20.65;4.65;;;18.60;44.40;;;;;;5018409;28;20149;-64
2023/01/29 01:17:02;;;;;;;20.13;4.90;;;18.40;45.00;;;;;;5022388;28;20519;-65
2023/01/29 01:19:28;;;;;;;15.63;4.93;;;18.20;45.70;;;;;;5020702;28;20107;-64
2023/01/29 01:21:55;;;;;;;26.08;6.40;;;18.10;46.20;;;;;;5026750;28;20752;-66
2023/01/29 01:24:22;;;;;;;29.20;7.28;;;17.90;46.20;;;;;;5025673;28;20076;-64
2023/01/29 01:26:48;;;;;;;26.75;8.95;;;17.80;46.50;;;;;;5024250;28;20061;-64
2023/01/29 01:29:15;;;;;;;27.05;8.38;;;17.70;46.90;;;;;;5020151;28;20135;-67
2023/01/29 01:31:41;;;;;;;23.65;9.45;;;17.60;47.20;;;;;;5021831;28;20076;-65
2023/01/29 01:34:08;;;;;;;30.58;8.52;;;17.50;47.80;;;;;;5021845;28;20068;-65
2023/01/29 01:36:34;;;;;;;40.10;7.60;;;17.30;48.10;;;;;;5019991;28;20078;-66
2023/01/29 01:39:00;;;;;;;38.90;8.38;;;17.20;49.30;;;;;;5022274;28;20085;-64
2023/01/29 01:41:28;;;;;;;45.97;8.40;;;17.00;48.90;;;;;;5019516;28;20527;-66
2023/01/29 01:43:59;;;;;;;23.63;6.03;;;16.90;49.20;;;;;;5018119;28;20082;-64
2023/01/29 01:46:29;;;;;;;33.90;6.82;;;16.90;49.40;;;;;;5022506;28;20061;-65
2023/01/29 01:49:07;;;;;;;28.65;7.05;;;16.90;49.80;;;;;;5019814;28;20071;-65
2023/01/29 01:51:37;;;;;;;47.72;8.38;;;16.80;49.90;;;;;;5021772;28;20085;-66
2023/01/29 01:54:10;;;;;;;46.70;8.35;;;16.50;50.40;;;;;;5020312;28;20068;-65
2023/01/29 01:56:42;;;;;;;31.80;8.48;;;16.50;50.80;;;;;;5020687;28;20097;-67
2023/01/29 01:59:15;;;;;;;41.50;9.73;;;16.40;51.00;;;;;;5016810;28;20078;-66
2023/01/29 02:01:46;;;;;;;38.97;9.30;;;16.30;51.30;;;;;;5033855;28;20089;-66
2023/01/29 02:09:57;;;;;;;65.03;12.60;;;16.10;52.20;;;;;;5021211;28;20073;-65
2023/01/29 02:12:24;;;;;;;62.42;16.00;;;16.00;52.60;;;;;;5020796;28;20454;-64
2023/01/29 02:14:51;;;;;;;50.30;16.63;;;15.90;52.90;;;;;;5022873;28;20085;-64
2023/01/29 02:17:19;;;;;;;63.67;18.88;;;15.80;53.20;;;;;;5019917;28;20142;-64
2023/01/29 02:20:10;;;;;;;64.10;19.48;;;15.80;53.50;;;;;;5019987;28;20536;-65
2023/01/29 02:23:07;;;;;;;65.10;18.33;;;15.70;53.80;;;;;;5020723;28;20083;-66
2023/01/29 02:25:50;;;;;;;71.70;16.20;;;15.70;54.30;;;;;;5024068;28;20066;-64
2023/01/29 02:28:35;;;;;;;60.38;14.98;;;15.50;54.60;;;;;;5024212;28;20163;-65
2023/01/29 02:31:24;;;;;;;52.55;13.30;;;15.50;55.00;;;;;;5026458;28;20062;-65
2023/01/29 02:34:19;;;;;;;60.22;13.85;;;15.30;55.10;;;;;;5025596;28;20141;-65
2023/01/29 02:37:12;;;;;;;64.00;14.07;;;15.30;55.50;;;;;;5022795;28;20075;-66
2023/01/29 02:40:24;;;;;;;45.13;13.18;;;15.30;55.90;;;;;;5021472;28;20110;-66
2023/01/29 02:42:58;;;;;;;62.38;14.88;;;15.20;56.20;;;;;;4996693;28;20084;-65
2023/01/29 02:45:52;;;;;;;61.30;13.55;;;15.20;56.70;;;;;;5025547;28;20076;-64
2023/01/29 02:48:22;;;;;;;51.63;15.88;;;15.10;56.90;;;;;;5018942;28;20483;-66
2023/01/29 02:50:59;;;;;;;75.68;17.83;;;15.00;56.70;;;;;;5020756;28;20068;-64
2023/01/29 02:53:39;;;;;;;84.55;22.23;;;14.90;57.50;;;;;;5023108;28;20078;-66
2023/01/29 02:56:18;;;;;;;100.15;25.60;;;14.80;57.80;;;;;;5026309;28;20113;-65
2023/01/29 02:59:15;;;;;;;80.38;25.15;;;14.70;57.80;;;;;;5026683;28;20440;-66
2023/01/29 03:01:50;;;;;;;77.10;26.35;;;14.70;58.30;;;;;;5006633;28;20667;-66
2023/01/29 03:04:26;;;;;;;99.10;32.22;;;14.70;58.40;;;;;;5029007;28;20129;-65
2023/01/29 03:07:09;;;;;;;88.50;28.67;;;14.70;58.50;;;;;;5023092;28;20079;-64
2023/01/29 03:09:41;;;;;;;101.85;31.00;;;14.60;58.80;;;;;;5025216;28;20480;-65
2023/01/29 03:12:27;;;;;;;90.78;29.27;;;14.50;59.30;;;;;;5025476;28;20529;-67
2023/01/29 03:15:13;;;;;;;80.32;31.80;;;14.60;60.00;;;;;;5024239;28;20158;-65
2023/01/29 03:18:01;;;;;;;99.78;31.23;;;14.60;60.60;;;;;;5024349;28;20102;-68
2023/01/29 03:20:38;;;;;;;81.50;28.35;;;14.50;61.40;;;;;;5022457;28;20158;-66
2023/01/29 03:23:10;;;;;;;79.18;22.70;;;14.40;62.10;;;;;;5023337;28;20070;-66
2023/01/29 03:34:23;;;;;;;74.45;16.65;;;14.50;64.70;;;;;;5018915;28;20091;-66
2023/01/29 03:36:59;;;;;;;60.45;14.82;;;14.50;65.20;;;;;;5021021;28;20086;-64
2023/01/29 03:39:29;;;;;;;;;;;14.40;65.40;;;;;;5022006;28;20497;-68
2023/01/29 03:42:15;;;;;;;51.38;13.88;;;14.40;65.80;;;;;;5024171;28;19955;-67
2023/01/29 03:44:56;;;;;;;40.20;13.75;;;14.30;65.80;;;;;;5021735;28;20075;-66
2023/01/29 03:47:34;;;;;;;47.00;13.25;;;14.30;66.20;;;;;;5020990;28;20559;-67
2023/01/29 03:50:19;;;;;;;41.67;14.90;;;14.10;66.60;;;;;;5026744;28;20106;-68
2023/01/29 03:53:21;;;;;;;51.08;14.45;;;14.10;67.10;;;;;;5022803;28;20087;-67
2023/01/29 03:56:08;;;;;;;49.83;16.33;;;14.00;67.80;;;;;;5021210;28;20078;-67
2023/01/29 03:58:44;;;;;;;54.20;18.67;;;14.00;67.90;;;;;;5025405;28;20155;-66
2023/01/29 04:01:17;;;;;;;57.60;19.13;;;13.90;68.10;;;;;;5021825;28;20074;-68
2023/01/29 04:03:48;;;;;;;55.42;17.88;;;13.80;68.70;;;;;;5022719;28;20151;-65
2023/01/29 04:06:24;;;;;;;63.50;17.02;;;13.80;68.50;;;;;;5019885;28;20069;-63
2023/01/29 04:09:00;;;;;;;63.88;17.05;;;13.80;69.00;;;;;;5021651;28;20137;-65
2023/01/29 04:11:28;;;;;;;64.32;16.88;;;13.80;69.20;;;;;;5015773;28;20106;-67
2023/01/29 04:13:57;;;;;;;42.90;15.13;;;13.70;69.00;;;;;;5021699;28;20087;-66
2023/01/29 04:16:40;;;;;;;49.70;15.32;;;13.80;69.10;;;;;;5020654;28;20138;-66
2023/01/29 04:19:07;;;;;;;60.80;18.17;;;13.70;69.30;;;;;;5020912;28;20617;-67
2023/01/29 04:21:36;;;;;;;46.90;17.67;;;13.70;69.40;;;;;;5024931;28;20074;-68
2023/01/29 04:24:04;;;;;;;50.03;18.38;;;13.60;69.60;;;;;;5023271;28;20159;-67
2023/01/29 04:26:35;;;;;;;60.63;22.35;;;13.60;69.80;;;;;;5020292;28;21391;-66
2023/01/29 04:29:29;;;;;;;69.60;22.88;;;13.50;70.30;;;;;;5027517;28;20091;-68
2023/01/29 04:32:07;;;;;;;84.03;27.10;;;13.40;70.80;;;;;;5023093;28;20169;-67
2023/01/29 04:34:50;;;;;;;71.85;28.83;;;13.30;71.20;;;;;;5021476;28;20075;-66
2023/01/29 04:37:41;;;;;;;79.40;29.45;;;13.30;71.40;;;;;;5021279;28;20093;-66
2023/01/29 04:40:31;;;;;;;69.50;30.02;;;13.20;71.60;;;;;;5022906;28;20114;-66
2023/01/29 04:43:08;;;;;;;74.32;32.95;;;13.20;71.80;;;;;;5021026;28;20198;-66
2023/01/29 04:45:41;;;;;;;92.43;34.33;;;13.20;71.80;;;;;;5023085;28;20095;-68
2023/01/29 04:48:26;;;;;;;76.25;25.10;;;13.20;71.90;;;;;;5024396;28;20110;-65
2023/01/29 04:50:59;;;;;;;72.53;25.33;;;13.20;72.00;;;;;;5018014;28;20171;-67
2023/01/29 04:53:47;;;;;;;63.17;27.65;;;13.10;72.20;;;;;;5022771;28;20069;-68
2023/01/29 04:56:16;;;;;;;;;;;13.10;72.10;;;;;;5023141;28;20073;-69
2023/01/29 04:59:12;;;;;;;70.32;29.58;;;13.00;72.00;;;;;;5018097;28;19978;-66
2023/01/29 05:01:38;;;;;;;81.97;29.38;;;12.90;73.20;;;;;;5019303;28;20091;-65
2023/01/29 05:04:10;;;;;;;88.45;31.85;;;12.80;72.90;;;;;;5024594;28;20477;-68
2023/01/29 05:06:38;;;;;;;74.65;23.50;;;12.70;73.30;;;;;;5017753;28;20096;-66
2023/01/29 05:09:05;;;;;;;70.20;25.15;;;12.70;73.50;;;;;;5016994;28;20078;-64
2023/01/29 05:11:34;;;;;;;76.05;27.15;;;12.80;73.40;;;;;;5019288;28;20103;-66
2023/01/29 05:14:03;;;;;;;72.97;26.88;;;12.70;73.60;;;;;;5021833;28;20090;-67
2023/01/29 05:16:52;;;;;;;68.32;26.30;;;12.80;73.70;;;;;;5019161;28;20624;-67
2023/01/29 05:19:18;;;;;;;77.00;26.67;;;12.70;73.70;;;;;;5020862;28;20179;-67
2023/01/29 05:21:46;;;;;;;;;;;12.60;73.90;;;;;;5021940;28;20118;-66
2023/01/29 05:24:16;;;;;;;84.32;28.85;;;12.60;74.60;;;;;;5019731;28;19962;-65
2023/01/29 05:29:30;;;;;;;96.45;33.55;;;12.50;74.60;;;;;;5022117;28;20135;-66
2023/01/29 05:31:56;;;;;;;86.78;32.78;;;12.40;75.00;;;;;;5017304;28;20571;-65
2023/01/29 05:34:22;;;;;;;;;;;12.40;74.70;;;;;;5021533;28;20143;-69
2023/01/29 05:36:49;;;;;;;74.00;32.13;;;12.40;75.10;;;;;;5020094;28;20023;-66
2023/01/29 05:39:15;;;;;;;96.53;29.75;;;12.30;75.40;;;;;;5022896;28;20083;-65
2023/01/29 05:41:42;;;;;;;85.78;31.45;;;12.30;75.80;;;;;;5023405;28;20433;-66
2023/01/29 05:44:12;;;;;;;82.60;30.52;;;12.40;75.70;;;;;;5022898;28;20080;-65
2023/01/29 05:46:38;;;;;;;92.97;33.13;;;12.40;75.70;;;;;;5023849;28;20080;-69
2023/01/29 05:49:05;;;;;;;;;;;12.40;75.90;;;;;;5023738;28;20075;-67
2023/01/29 05:51:31;;;;;;;88.47;31.70;;;12.30;76.20;;;;;;5019973;28;19971;-65
2023/01/29 05:53:57;;;;;;;;;;;12.30;76.20;;;;;;5022076;28;20088;-65
2023/01/29 05:56:24;;;;;;;90.85;34.95;;;12.30;76.10;;;;;;5020607;28;20004;-66
2023/01/29 05:58:50;;;;;;;84.82;33.83;;;12.20;76.10;;;;;;5023807;28;20571;-67
2023/01/29 06:01:20;;;;;;;91.93;37.67;;;12.20;76.30;;;;;;5020439;28;20072;-67
2023/01/29 06:03:47;;;;;;;103.45;37.05;;;12.10;76.30;;;;;;5025855;28;20063;-67
2023/01/29 06:06:14;;;;;;;111.22;39.85;;;12.00;76.50;;;;;;5022819;28;20084;-65
2023/01/29 06:08:40;;;;;;;98.75;37.63;;;12.10;76.70;;;;;;5023099;28;20526;-66
2023/01/29 06:11:07;;;;;;;;;;;12.10;77.10;;;;;;5032775;28;20105;-66
2023/01/29 06:13:33;;;;;;;117.47;43.07;;;11.90;77.90;;;;;;5024846;28;19974;-66
2023/01/29 06:15:59;;;;;;;;;;;12.00;77.50;;;;;;5029905;28;20433;-68
2023/01/29 06:18:26;;;;;;;147.57;50.13;;;11.80;77.40;;;;;;5025498;28;20070;-65
2023/01/29 06:20:52;;;;;;;131.13;48.15;;;11.80;77.50;;;;;;5022329;28;20085;-66
2023/01/29 06:23:18;;;;;;;;;;;11.80;77.60;;;;;;5028931;28;20083;-67
2023/01/29 06:25:45;;;;;;;143.77;53.38;;;11.80;78.10;;;;;;5026303;28;19955;-67
2023/01/29 06:28:11;;;;;;;;;;;11.70;77.90;;;;;;5024861;28;20068;-67
2023/01/29 06:30:37;;;;;;;131.85;52.05;;;11.70;78.30;;;;;;5024630;28;19955;-65
2023/01/29 06:33:03;;;;;;;;;;;11.70;78.60;;;;;;5027292;28;20097;-67
2023/01/29 06:35:29;;;;;;;133.90;49.20;;;11.70;78.60;;;;;;5024240;28;19992;-68
2023/01/29 06:37:56;;;;;;;113.93;46.63;;;11.70;78.60;;;;;;5023667;28;20148;-67
2023/01/29 06:40:22;;;;;;;117.32;47.15;;;11.70;79.40;;;;;;5022087;28;20466;-67
2023/01/29 06:42:48;;;;;;;;;;;11.70;79.80;;;;;;5021778;28;20077;-66
2023/01/29 06:45:15;;;;;;;115.97;41.28;;;11.70;80.40;;;;;;5024503;28;19963;-67
2023/01/29 06:47:41;;;;;;;;;;;11.70;80.90;;;;;;5028229;28;20197;-68
2023/01/29 06:50:08;;;;;;;104.20;39.50;;;11.70;81.30;;;;;;5026478;28;19955;-66
2023/01/29 06:52:34;;;;;;;97.78;35.70;;;11.60;81.80;;;;;;5023474;28;20069;-67
2023/01/29 06:55:00;;;;;;;;;;;11.70;82.40;;;;;;5031601;28;20084;-64
2023/01/29 06:57:29;;;;;;;88.03;35.85;;;11.60;82.70;;;;;;5029742;28;20346;-65
2023/01/29 06:59:55;;;;;;;88.85;36.45;;;11.60;83.20;;;;;;5028941;28;20075;-67
2023/01/29 07:02:21;;;;;;;;;;;11.60;83.70;;;;;;5022084;28;20119;-67
2023/01/29 07:04:47;;;;;;;108.32;50.25;;;11.60;84.20;;;;;;5030606;28;19963;-65
2023/01/29 07:07:13;;;;;;;;;;;11.60;84.40;;;;;;5021625;28;20068;-66
2023/01/29 07:09:40;;;;;;;103.57;40.92;;;11.60;84.50;;;;;;5019374;28;19963;-66
2023/01/29 07:12:10;;;;;;;76.00;36.63;;;11.60;84.40;;;;;;5025409;28;20196;-66
2023/01/29 07:14:36;;;;;;;68.28;32.80;;;11.60;84.20;;;;;;5021664;28;20127;-65
2023/01/29 07:17:02;;;;;;;;;;;11.60;84.60;;;;;;5021207;28;20127;-65
2023/01/29 07:19:29;;;;;;;90.63;35.40;;;11.60;85.00;;;;;;5022838;28;19975;-66
2023/01/29 07:21:55;;;;;;;80.38;34.38;;;11.60;85.30;;;;;;5022511;28;20080;-66
2023/01/29 07:24:22;;;;;;;80.90;32.75;;;11.60;86.10;;;;;;5021932;28;20093;-64
2023/01/29 07:26:48;;;;;;;;;;;11.60;86.40;;;;;;5022936;28;20194;-66
2023/01/29 07:29:14;;;;;;;73.72;31.83;;;11.50;86.40;;;;;;5017934;28;20417;-66
2023/01/29 07:31:40;;;;;;;;;;;11.50;86.80;;;;;;5022138;28;20154;-66
2023/01/29 07:34:06;;;;;;;72.55;30.20;;;11.50;87.60;;;;;;5020028;28;19955;-66
2023/01/29 07:36:32;;;;;;;;;;;11.50;87.90;;;;;;5020138;28;20076;-67
2023/01/29 07:38:59;;;;;;;76.10;32.15;;;11.50;87.90;;;;;;5022741;28;19994;-66
2023/01/29 07:41:25;;;;;;;;;;;11.40;87.80;;;;;;5026316;28;20067;-65
2023/01/29 07:43:51;;;;;;;91.47;39.83;;;11.30;86.50;;;;;;5018807;28;19960;-66
2023/01/29 07:46:17;;;;;;;;;;;11.20;86.10;;;;;;5004064;28;20523;-66
2023/01/29 07:48:44;;;;;;;100.05;41.90;;;11.30;85.90;;;;;;5023572;28;19960;-65
2023/01/29 07:51:10;;;;;;;;;;;11.30;85.50;;;;;;5020689;28;20068;-65
2023/01/29 07:53:36;;;;;;;90.75;36.42;;;11.20;84.70;;;;;;5025008;28;20040;-67
2023/01/29 07:56:03;;;;;;;91.05;37.42;;;11.20;85.70;;;;;;5023488;28;20069;-67
2023/01/29 07:58:29;;;;;;;82.93;36.10;;;11.10;86.90;;;;;;5019665;28;20073;-65
2023/01/29 08:00:55;;;;;;;;;;;11.10;87.70;;;;;;5024074;28;20097;-66
2023/01/29 08:03:21;;;;;;;116.20;41.15;;;11.00;87.90;;;;;;5019529;28;20002;-64
2023/01/29 08:05:48;;;;;;;;;;;10.90;87.50;;;;;;5022626;28;20066;-67
2023/01/29 08:08:14;;;;;;;96.55;39.13;;;10.90;87.40;;;;;;5019933;28;21702;-62
2023/01/29 08:10:41;;;;;;;100.65;39.38;;;10.80;88.10;;;;;;5016066;28;20141;-67
2023/01/29 08:13:08;;;;;;;90.13;37.63;;;10.80;88.70;;;;;;5026507;28;20121;-64
2023/01/29 08:15:35;;;;;;;89.72;37.58;;;10.80;89.50;;;;;;5021624;28;20072;-64
2023/01/29 08:18:03;;;;;;;91.65;36.42;;;10.80;90.40;;;;;;5021522;28;20435;-67
2023/01/29 08:20:29;;;;;;;102.60;37.72;;;10.70;90.80;;;;;;5024457;28;20198;-67
2023/01/29 08:23:04;;;;;;;89.03;37.15;;;10.70;91.10;;;;;;5018009;28;20073;-64
2023/01/29 08:25:32;;;;;;;99.00;35.88;;;10.70;91.30;;;;;;5023275;28;20137;-66
2023/01/29 08:27:59;;;;;;;92.07;35.63;;;10.80;91.50;;;;;;5024674;28;20130;-66
2023/01/29 08:30:27;;;;;;;96.68;37.20;;;10.80;91.60;;;;;;5020770;28;20072;-65
2023/01/29 08:32:54;;;;;;;92.65;37.45;;;10.80;91.70;;;;;;5019013;28;20081;-65
2023/01/29 08:35:20;;;;;;;86.50;32.90;;;10.80;91.90;;;;;;5018843;28;20068;-67
2023/01/29 08:38:02;;;;;;;89.07;33.22;;;10.80;92.20;;;;;;5022617;28;20067;-68
2023/01/29 08:40:31;;;;;;;79.68;32.15;;;10.70;92.60;;;;;;5019040;28;20085;-65
2023/01/29 08:43:07;;;;;;;81.60;26.90;;;10.70;93.10;;;;;;5019566;28;20069;-66
2023/01/29 08:45:36;;;;;;;64.57;27.55;;;10.70;93.70;;;;;;5017908;28;20118;-67
2023/01/29 08:48:03;;;;;;;69.72;29.13;;;10.60;94.80;;;;;;5024843;28;20092;-65
2023/01/29 08:50:30;;;;;;;76.25;31.98;;;10.60;95.50;;;;;;5026563;28;20159;-66
2023/01/29 08:52:58;;;;;;;70.65;27.95;;;10.60;96.40;;;;;;5018609;28;20063;-67
2023/01/29 08:55:26;;;;;;;58.13;27.80;;;10.60;97.40;;;;;;5022064;28;20073;-66
2023/01/29 08:57:52;;;;;;;56.83;24.85;;;10.50;98.40;;;;;;5020257;28;20171;-67
2023/01/29 09:00:18;;;;;;;;;;;10.50;99.20;;;;;;5021435;28;20123;-67
2023/01/29 09:02:45;;;;;;;57.35;23.40;;;10.50;99.80;;;;;;5018986;28;20058;-66
2023/01/29 09:05:11;;;;;;;;;;;10.50;99.90;;;;;;5017858;28;20124;-66
2023/01/29 09:07:37;;;;;;;52.05;24.45;;;10.50;99.90;;;;;;5019855;28;20373;-64
2023/01/29 09:10:03;;;;;;;;;;;10.50;99.90;;;;;;5020316;28;20149;-65
2023/01/29 09:12:30;;;;;;;37.40;20.15;;;10.40;99.90;;;;;;5022620;28;19978;-66
2023/01/29 09:14:56;;;;;;;;;;;10.50;99.90;;;;;;5022870;28;20100;-64
2023/01/29 09:17:22;;;;;;;38.13;17.58;;;10.50;99.90;;;;;;5020494;28;19966;-67
2023/01/29 09:19:48;;;;;;;;;;;10.50;99.90;;;;;;5021032;28;20439;-64
2023/01/29 09:22:15;;;;;;;40.65;21.65;;;10.70;99.90;;;;;;5021734;28;20429;-67
2023/01/29 09:24:41;;;;;;;50.05;23.10;;;10.70;99.90;;;;;;5021752;28;20068;-65
2023/01/29 09:27:08;;;;;;;;;;;10.80;99.90;;;;;;5020293;28;20139;-67
2023/01/29 09:29:35;;;;;;;47.75;22.30;;;10.90;99.90;;;;;;5023339;28;19956;-64
2023/01/29 09:32:01;;;;;;;;;;;10.90;99.90;;;;;;5018459;28;20207;-66
2023/01/29 09:34:27;;;;;;;66.35;20.92;;;11.00;99.90;;;;;;5020743;28;20034;-64
2023/01/29 09:36:53;;;;;;;;;;;11.10;99.90;;;;;;5018999;28;20076;-68
2023/01/29 09:39:20;;;;;;;30.63;17.40;;;11.10;99.90;;;;;;5020194;28;19971;-65
2023/01/29 09:41:52;;;;;;;26.65;16.33;;;11.00;99.90;;;;;;5017264;28;20068;-66
2023/01/29 09:44:28;;;;;;;32.83;16.33;;;11.00;99.90;;;;;;5021087;28;20584;-66
2023/01/29 09:46:56;;;;;;;28.55;16.00;;;11.00;99.90;;;;;;5016082;28;20094;-67
2023/01/29 09:49:45;;;;;;;37.33;16.83;;;10.90;99.90;;;;;;5019989;28;20096;-68
2023/01/29 09:52:23;;;;;;;21.15;13.02;;;10.90;99.90;;;;;;5020286;28;20072;-67
2023/01/29 09:55:14;;;;;;;28.85;13.38;;;10.90;99.90;;;;;;5022426;28;20079;-65
2023/01/29 09:57:59;;;;;;;31.80;15.00;;;11.00;99.90;;;;;;5022635;28;20163;-66
2023/01/29 10:00:49;;;;;;;30.63;17.15;;;11.00;99.90;;;;;;5015030;28;20092;-65
2023/01/29 10:03:48;;;;;;;53.28;20.77;;;11.00;99.90;;;;;;5014663;28;20126;-67
2023/01/29 10:06:27;;;;;;;40.60;15.85;;;11.00;99.90;;;;;;5018167;28;20075;-66
2023/01/29 10:09:08;;;;;;;26.75;14.73;;;11.10;99.90;;;;;;5021713;28;20077;-65
2023/01/29 10:11:43;;;;;;;53.45;19.88;;;11.10;99.90;;;;;;5016495;28;20186;-65
2023/01/29 10:14:36;;;;;;;33.33;15.43;;;11.20;99.90;;;;;;5022729;28;20106;-68
2023/01/29 10:17:26;;;;;;;28.85;14.23;;;11.20;99.90;;;;;;5021227;28;20113;-67
2023/01/29 10:19:53;;;;;;;87.72;20.55;;;11.30;99.90;;;;;;5023176;28;20121;-65
2023/01/29 10:22:31;;;;;;;;;;;11.20;99.90;;;;;;5018221;28;20067;-66
2023/01/29 10:25:01;;;;;;;;;;;11.30;99.90;;;;;;5018097;28;19956;-66
2023/01/29 10:27:33;;;;;;;23.08;14.15;;;11.40;99.90;;;;;;5020093;28;20700;-65
2023/01/29 10:30:08;;;;;;;34.88;17.35;;;11.30;99.90;;;;;;5020245;28;20128;-66
2023/01/29 10:32:36;;;;;;;50.00;20.48;;;11.30;99.90;;;;;;5017473;28;20136;-64
2023/01/29 10:35:22;;;;;;;28.60;15.52;;;11.30;99.90;;;;;;5023113;28;21176;-66
2023/01/29 10:37:52;;;;;;;32.58;19.60;;;11.30;99.90;;;;;;5021730;28;20063;-66
2023/01/29 10:40:46;;;;;;;65.55;22.83;;;11.30;99.90;;;;;;5023431;28;20088;-65
2023/01/29 10:43:28;;;;;;;24.60;15.02;;;11.30;99.90;;;;;;5013243;28;20076;-67
2023/01/29 10:46:20;;;;;;;37.63;18.60;;;11.40;99.90;;;;;;5021785;28;20063;-64
2023/01/29 10:49:08;;;;;;;47.70;19.60;;;11.30;99.90;;;;;;5025153;28;20537;-65
2023/01/29 10:51:34;;;;;;;;;;;11.30;99.90;;;;;;5023653;28;20489;-66
2023/01/29 10:54:35;;;;;;;46.67;17.67;;;11.30;99.90;;;;;;5021443;28;19951;-67
2023/01/29 10:57:27;;;;;;;33.10;19.80;;;11.30;99.90;;;;;;4989471;28;20089;-66
2023/01/29 11:00:12;;;;;;;56.17;24.75;;;11.40;99.90;;;;;;5024105;28;20127;-66
2023/01/29 11:02:49;;;;;;;77.93;25.65;;;11.40;99.90;;;;;;5027319;28;20121;-65
2023/01/29 11:05:28;;;;;;;54.83;24.33;;;11.30;99.90;;;;;;5026926;28;20067;-68
2023/01/29 11:08:10;;;;;;;86.00;29.02;;;11.30;99.90;;;;;;5026441;28;20075;-64
2023/01/29 11:11:05;;;;;;;50.45;23.77;;;11.30;99.90;;;;;;5025404;28;20107;-67
2023/01/29 11:13:46;;;;;;;109.15;30.27;;;11.20;99.90;;;;;;5019901;28;20098;-64
2023/01/29 11:16:13;;;;;;;73.75;37.00;;;11.20;99.90;;;;;;5021686;28;20758;-67
2023/01/29 11:18:53;;;;;;;93.97;36.05;;;11.10;99.90;;;;;;5024168;28;20098;-65
2023/01/29 11:21:20;;;;;;;82.10;36.38;;;11.20;99.90;;;;;;5024943;28;20064;-66
2023/01/29 11:23:46;;;;;;;89.10;38.13;;;11.20;99.90;;;;;;5024279;28;20531;-68
2023/01/29 11:26:19;;;;;;;58.33;33.88;;;11.20;99.90;;;;;;5019416;28;20586;-66
2023/01/29 11:28:50;;;;;;;267.15;41.85;;;11.10;99.90;;;;;;5022810;28;20072;-66
2023/01/29 11:31:34;;;;;;;76.78;31.27;;;11.10;99.90;;;;;;5020474;28;20110;-66
2023/01/29 11:34:20;;;;;;;59.33;31.77;;;11.10;99.90;;;;;;5020700;28;20064;-66
2023/01/29 11:36:55;;;;;;;63.20;30.58;;;11.10;99.90;;;;;;5019672;28;20067;-64
2023/01/29 11:39:23;;;;;;;196.88;35.00;;;10.90;99.90;;;;;;5023168;28;20098;-65
2023/01/29 11:41:59;;;;;;;195.52;32.65;;;10.90;99.90;;;;;;5019187;28;20118;-66
2023/01/29 11:44:28;;;;;;;59.10;27.98;;;10.90;99.90;;;;;;5019945;28;20103;-66
2023/01/29 11:46:58;;;;;;;50.28;24.95;;;10.80;99.90;;;;;;5023382;28;20107;-66
2023/01/29 11:49:32;;;;;;;65.05;23.48;;;10.80;99.90;;;;;;5021295;28;20072;-66
2023/01/29 11:52:02;;;;;;;64.53;25.20;;;10.90;99.90;;;;;;5024899;28;20563;-66
2023/01/29 11:54:37;;;;;;;57.70;24.30;;;10.90;99.90;;;;;;5021638;28;20076;-68
2023/01/29 11:57:04;;;;;;;87.68;23.55;;;10.90;99.90;;;;;;5023458;28;20075;-68
2023/01/29 11:59:48;;;;;;;103.00;23.60;;;10.80;99.90;;;;;;5027293;28;20085;-65
2023/01/29 12:02:30;;;;;;;100.43;25.42;;;10.80;99.90;;;;;;5023072;28;20078;-65
2023/01/29 12:05:01;;;;;;;31.05;20.65;;;10.80;99.90;;;;;;5022839;28;20072;-65
2023/01/29 12:07:28;;;;;;;101.15;23.15;;;10.80;99.90;;;;;;5018529;28;20093;-66
2023/01/29 12:09:57;;;;;;;96.00;24.67;;;10.80;99.90;;;;;;5019168;28;20437;-66
2023/01/29 12:12:31;;;;;;;83.75;30.20;;;10.80;99.90;;;;;;5022485;28;20170;-65
2023/01/29 12:15:26;;;;;;;64.00;27.55;;;10.80;99.90;;;;;;5020448;28;20068;-66
2023/01/29 12:18:10;;;;;;;152.95;31.90;;;10.70;99.90;;;;;;4985847;28;20084;-66
2023/01/29 12:21:19;;;;;;;66.80;28.27;;;10.80;99.90;;;;;;4980921;28;20103;-67
2023/01/29 12:23:59;;;;;;;111.88;30.83;;;10.80;99.90;;;;;;4893283;29;20066;-65
2023/01/29 12:26:31;;;;;;;121.22;31.35;;;10.80;99.90;;;;;;4893341;29;20186;-65
2023/01/29 12:29:13;;;;;;;137.10;33.40;;;10.80;99.90;;;;;;4893017;29;20143;-66
2023/01/29 12:32:19;;;;;;;64.47;25.75;;;10.80;99.90;;;;;;4893322;29;20067;-66
2023/01/29 12:35:01;;;;;;;160.85;26.08;;;10.70;99.90;;;;;;4892144;29;20178;-65
2023/01/29 12:37:59;;;;;;;82.32;27.05;;;10.70;99.90;;;;;;4891991;29;20591;-65
2023/01/29 12:40:32;;;;;;;63.67;24.95;;;10.70;99.90;;;;;;4887243;29;20100;-65
2023/01/29 12:43:05;;;;;;;103.18;31.52;;;10.70;99.90;;;;;;4893541;29;20071;-66
2023/01/29 12:45:35;;;;;;;60.60;28.65;;;10.60;99.90;;;;;;4893179;29;20070;-64
2023/01/29 12:48:06;;;;;;;78.75;32.03;;;10.40;99.90;;;;;;4892622;29;20236;-66
2023/01/29 12:50:36;;;;;;;100.45;29.35;;;10.50;99.90;;;;;;4893381;29;20075;-66
2023/01/29 12:53:09;;;;;;;62.15;26.38;;;10.60;99.90;;;;;;4893415;29;20577;-66
2023/01/29 12:55:43;;;;;;;57.20;25.27;;;10.60;99.90;;;;;;5016974;28;20596;-65
2023/01/29 12:58:16;;;;;;;58.33;24.42;;;10.50;99.90;;;;;;5020520;28;20126;-64
2023/01/29 13:00:45;;;;;;;55.15;22.30;;;10.40;99.90;;;;;;5022436;28;20270;-65
2023/01/29 13:03:29;;;;;;;77.18;21.13;;;10.40;99.90;;;;;;5021707;28;20167;-67
2023/01/29 13:05:57;;;;;;;38.67;18.13;;;10.40;99.90;;;;;;5018432;28;20085;-67
2023/01/29 13:08:29;;;;;;;35.58;18.02;;;10.40;99.90;;;;;;5019250;28;20484;-67
2023/01/29 13:11:01;;;;;;;41.53;21.35;;;10.50;99.90;;;;;;5023103;28;20138;-65
2023/01/29 13:13:35;;;;;;;39.95;18.17;;;10.60;99.90;;;;;;5015995;28;20114;-66
2023/01/29 13:16:06;;;;;;;27.33;14.23;;;10.60;99.90;;;;;;5025136;28;20068;-65
2023/01/29 13:18:39;;;;;;;32.30;16.40;;;10.60;99.90;;;;;;5018725;28;20117;-66
2023/01/29 13:21:12;;;;;;;31.85;15.52;;;10.50;99.90;;;;;;5019937;28;20468;-67
2023/01/29 13:24:02;;;;;;;26.25;13.77;;;10.50;99.90;;;;;;5019004;28;20076;-66
2023/01/29 13:26:29;;;;;;;32.92;16.75;;;10.40;99.90;;;;;;5019546;28;20115;-67
2023/01/29 13:28:57;;;;;;;30.67;15.48;;;10.50;99.90;;;;;;5018083;28;20083;-65
2023/01/29 13:31:33;;;;;;;29.60;13.80;;;10.50;99.90;;;;;;5018688;28;20081;-65
2023/01/29 13:34:15;;;;;;;35.78;16.65;;;10.50;99.90;;;;;;5023074;28;20777;-67
2023/01/29 13:36:45;;;;;;;29.40;15.82;;;10.60;99.90;;;;;;5022247;28;20159;-66